الصفحة الرئيسية
METAR-TAF:

METAR-TAF

مطار :

مطار غران كناريا

كناريا الكبرى, إسبانيا

دائرة عرض: 27-56N, خط طول: 015-23W, ارتفاع: 23 متر

مراقبة الطقس الحالي

تاريخ ووقت الإصدار 18 دقيقة قبل الساعة 05:00UTC
ريح 11 عقدة من الشمال
درجة الحرارة 19°درجة مئوية
الرطوبة 83%
ضغط 1025 hPa
الرؤية 10 كم أو أكثر
غيوم قليلة على ارتفاع 2000 قدم
غيوم متفرقة على ارتفاع 4000 قدم

METAR: GCLP 140500Z 36011KT 9999 FEW020 SCT040 19/16 Q1025 NOSIG

زمن: 05:18 (05:18 UTC)

توقعات

تاريخ ووقت الإصدار 3ساعات و 18 دقيقة قبل الساعة 02:00UTC
التوقعات صالحة من14 الساعة 03 UTC إلى 15 الساعة 03 UTC
ريح 12 عقدة من الشمال
الرؤية 10 كم أو أكثر
غيوم متفرقة على ارتفاع 2500 قدم

TAF: GCLP 140200Z 1403/1503 36012KT 9999 SCT025 TX22/1413Z TN18/1406Z

أرصاد الطقس والتوقعات من أكثر من 4000 مطار (تقارير الطقس للمطار METAR والتنبؤ بالطقس بالمطارTAF).

المحطات المتاحة هي النقط الصفراء والحمراء على الخريطة.

حرك المؤشر فوق النقطة لمعرفة اسم المحطة.

ثم انقر لمعرفة أرصاد وتوقعات الطقس.

لتغيير الخارطة: اضغط على الأزرار الخضراء مع رمز الصليب الأسود للتكبير. على الزر الأخضر مع شرطة للتصغير، أو على الأسهم الخضراء للخرائط المجاورة.


METAR-TAF: